createdAt,value
2022-12-27T00:00:54.791Z,75.80
2022-12-27T00:03:22.717Z,77.73
2022-12-27T00:05:50.188Z,75.11
2022-12-27T00:08:17.599Z,80.31
2022-12-27T00:10:45.400Z,78.64
2022-12-27T00:13:12.898Z,80.82
2022-12-27T00:15:40.268Z,83.61
2022-12-27T00:18:07.984Z,80.17
2022-12-27T00:20:35.390Z,76.72
2022-12-27T00:23:03.401Z,76.92
2022-12-27T00:25:31.451Z,75.19
2022-12-27T00:27:58.817Z,82.64
2022-12-27T00:30:26.231Z,86.29
2022-12-27T00:32:54.111Z,79.36
2022-12-27T00:35:21.480Z,79.87
2022-12-27T00:37:48.866Z,77.45
2022-12-27T00:40:16.615Z,71.73
2022-12-27T00:42:44.039Z,78.03
2022-12-27T00:45:11.906Z,76.27
2022-12-27T00:47:40.285Z,76.13
2022-12-27T00:50:07.914Z,74.89
2022-12-27T00:52:35.294Z,73.67
2022-12-27T00:55:03.321Z,77.83
2022-12-27T00:57:30.765Z,72.82
2022-12-27T00:59:58.182Z,71.38
2022-12-27T01:02:26.124Z,72.31
2022-12-27T01:04:54.651Z,68.84
2022-12-27T01:07:22.037Z,67.94
2022-12-27T01:09:49.917Z,67.53
2022-12-27T01:12:17.313Z,66.28
2022-12-27T01:14:44.960Z,66.57
2022-12-27T01:17:12.656Z,64.29
2022-12-27T01:19:40.092Z,70.78
2022-12-27T01:22:07.697Z,71.43
2022-12-27T01:24:35.387Z,64.09
2022-12-27T01:27:02.801Z,62.55
2022-12-27T01:29:30.221Z,63.90
2022-12-27T01:31:57.888Z,62.37
2022-12-27T01:34:26.234Z,67.67
2022-12-27T01:36:53.695Z,66.95
2022-12-27T01:39:21.485Z,67.40
2022-12-27T01:42:07.956Z,69.17
2022-12-27T01:44:39.032Z,67.52
2022-12-27T01:47:12.504Z,67.59
2022-12-27T01:49:50.638Z,66.00
2022-12-27T01:52:18.249Z,71.45
2022-12-27T01:54:46.515Z,72.01
2022-12-27T01:57:13.996Z,72.02
2022-12-27T01:59:41.706Z,75.63
2022-12-27T02:02:09.782Z,76.22
2022-12-27T02:04:37.578Z,76.46
2022-12-27T02:07:05.533Z,79.37
2022-12-27T02:09:40.843Z,77.66
2022-12-27T02:12:09.701Z,78.36
2022-12-27T02:14:49.172Z,77.44
2022-12-27T02:17:20.140Z,78.67
2022-12-27T02:20:18.047Z,77.42
2022-12-27T02:23:07.528Z,79.03
2022-12-27T02:25:41.016Z,74.32
2022-12-27T02:28:32.901Z,73.37
2022-12-27T02:31:06.424Z,70.82
2022-12-27T02:33:37.346Z,72.15
2022-12-27T02:36:07.601Z,72.68
2022-12-27T02:38:43.097Z,72.61
2022-12-27T02:41:30.599Z,71.80
2022-12-27T02:44:16.785Z,71.59
2022-12-27T02:47:02.758Z,71.42
2022-12-27T02:49:54.817Z,73.66
2022-12-27T02:52:40.808Z,63.63
2022-12-27T02:55:23.475Z,59.66
2022-12-27T02:58:28.659Z,67.80
2022-12-27T03:01:31.084Z,74.63
2022-12-27T03:04:04.272Z,77.37
2022-12-27T03:07:01.044Z,71.91
2022-12-27T03:09:53.912Z,68.14
2022-12-27T03:13:02.120Z,72.44
2022-12-27T03:15:54.056Z,74.60
2022-12-27T03:18:37.917Z,68.40
2022-12-27T03:21:25.545Z,57.66
2022-12-27T03:24:14.614Z,60.07
2022-12-27T03:26:47.662Z,56.88
2022-12-27T03:29:36.770Z,54.81
2022-12-27T03:32:27.318Z,57.22
2022-12-27T03:35:11.087Z,56.84
2022-12-27T03:37:59.612Z,57.15
2022-12-27T03:40:30.147Z,56.70
2022-12-27T03:43:12.304Z,54.13
2022-12-27T03:46:14.009Z,61.11
2022-12-27T03:48:54.030Z,66.29
2022-12-27T03:51:23.874Z,69.99
2022-12-27T03:53:55.069Z,70.13
2022-12-27T03:56:22.856Z,75.37
2022-12-27T03:58:51.586Z,78.25
2022-12-27T04:01:19.108Z,78.98
2022-12-27T04:03:46.884Z,79.43
2022-12-27T04:06:14.700Z,80.67
2022-12-27T04:09:00.556Z,77.33
2022-12-27T04:11:46.733Z,74.02
2022-12-27T04:14:32.692Z,68.07
2022-12-27T04:17:19.029Z,71.51
2022-12-27T04:20:05.025Z,75.21
2022-12-27T04:22:52.110Z,72.82
2022-12-27T04:25:37.832Z,78.65
2022-12-27T04:28:24.167Z,72.49
2022-12-27T04:31:10.169Z,81.00
2022-12-27T04:33:56.478Z,68.74
2022-12-27T04:36:23.872Z,77.49
2022-12-27T04:38:51.780Z,76.19
2022-12-27T04:41:37.998Z,71.27
2022-12-27T04:44:24.356Z,70.25
2022-12-27T04:47:10.623Z,64.24
2022-12-27T04:49:57.095Z,65.19
2022-12-27T04:52:43.493Z,62.44
2022-12-27T04:55:17.440Z,66.69
2022-12-27T04:57:44.810Z,67.51
2022-12-27T05:00:32.483Z,81.65
2022-12-27T05:03:01.253Z,76.56
2022-12-27T05:05:29.159Z,80.73
2022-12-27T05:08:16.412Z,81.19
2022-12-27T05:11:02.681Z,83.57
2022-12-27T05:13:48.430Z,81.79
2022-12-27T05:16:16.210Z,83.24
2022-12-27T05:18:43.677Z,81.26
2022-12-27T05:21:11.139Z,81.18
2022-12-27T05:24:03.376Z,79.93
2022-12-27T05:26:33.294Z,80.27
2022-12-27T05:29:01.518Z,79.97
2022-12-27T05:31:29.493Z,80.26
2022-12-27T05:33:57.762Z,79.40
2022-12-27T05:36:26.039Z,81.40
2022-12-27T05:38:53.491Z,78.61
2022-12-27T05:41:20.928Z,81.44
2022-12-27T05:43:48.922Z,81.15
2022-12-27T05:46:21.152Z,82.16
2022-12-27T05:48:49.525Z,81.68
2022-12-27T05:51:21.155Z,81.92
2022-12-27T05:53:49.162Z,81.07
2022-12-27T05:56:18.676Z,80.95
2022-12-27T05:58:46.516Z,80.35
2022-12-27T06:01:16.583Z,81.64
2022-12-27T06:03:44.873Z,82.12
2022-12-27T06:06:13.465Z,81.80
2022-12-27T06:08:40.934Z,81.58
2022-12-27T06:11:13.951Z,81.41
2022-12-27T06:13:42.518Z,79.76
2022-12-27T06:16:12.223Z,79.17
2022-12-27T06:18:41.220Z,80.49
2022-12-27T06:21:11.181Z,80.64
2022-12-27T06:23:40.657Z,78.50
2022-12-27T06:26:10.605Z,78.39
2022-12-27T06:28:38.277Z,79.20
2022-12-27T06:31:06.156Z,78.13
2022-12-27T06:33:33.716Z,78.62
2022-12-27T06:36:06.654Z,78.38
2022-12-27T06:38:34.354Z,77.96
2022-12-27T06:41:07.035Z,78.68
2022-12-27T06:43:35.204Z,79.21
2022-12-27T06:46:05.369Z,78.99
2022-12-27T06:48:33.820Z,79.29
2022-12-27T06:51:04.380Z,79.07
2022-12-27T06:53:31.883Z,79.95
2022-12-27T06:56:07.046Z,79.45
2022-12-27T06:58:35.065Z,78.91
2022-12-27T07:01:20.501Z,78.92
2022-12-27T07:03:53.243Z,79.13
2022-12-27T07:06:21.443Z,78.77
2022-12-27T07:08:50.879Z,78.46
2022-12-27T07:11:19.886Z,76.67
2022-12-27T07:13:49.495Z,75.66
2022-12-27T07:16:19.214Z,76.27
2022-12-27T07:18:49.707Z,72.16
2022-12-27T07:21:20.372Z,74.92
2022-12-27T07:23:48.008Z,73.82
2022-12-27T07:26:20.188Z,75.06
2022-12-27T07:28:48.119Z,73.01
2022-12-27T07:31:17.664Z,68.92
2022-12-27T07:33:45.160Z,71.00
2022-12-27T07:36:14.602Z,71.53
2022-12-27T07:38:42.064Z,71.27
2022-12-27T07:41:10.947Z,63.73
2022-12-27T07:43:38.775Z,65.36
2022-12-27T07:46:08.650Z,63.91
2022-12-27T07:48:36.684Z,63.21
2022-12-27T07:51:04.841Z,69.80
2022-12-27T07:53:32.936Z,68.73
2022-12-27T07:56:06.108Z,69.36
2022-12-27T07:58:41.149Z,70.72
2022-12-27T08:01:10.074Z,69.94
2022-12-27T08:03:38.879Z,66.18
2022-12-27T08:06:07.179Z,65.83
2022-12-27T08:08:40.377Z,67.92
2022-12-27T08:11:08.610Z,65.81
2022-12-27T08:13:36.359Z,64.56
2022-12-27T08:16:04.241Z,63.95
2022-12-27T08:18:32.930Z,64.06
2022-12-27T08:21:00.587Z,67.26
2022-12-27T08:23:28.151Z,63.68
2022-12-27T08:25:55.843Z,64.42
2022-12-27T08:28:23.237Z,64.18
2022-12-27T08:30:50.729Z,64.51
2022-12-27T08:33:19.305Z,62.72
2022-12-27T08:35:54.743Z,62.20
2022-12-27T08:38:22.871Z,63.26
2022-12-27T08:40:50.675Z,61.21
2022-12-27T08:43:18.281Z,60.07
2022-12-27T08:45:45.961Z,60.31
2022-12-27T08:48:13.410Z,61.73
2022-12-27T08:50:40.880Z,62.69
2022-12-27T08:53:10.289Z,62.59
2022-12-27T08:55:37.714Z,61.07
2022-12-27T08:58:12.186Z,59.79
2022-12-27T09:00:43.697Z,64.22
2022-12-27T09:03:11.147Z,60.41
2022-12-27T09:05:41.920Z,60.83
2022-12-27T09:08:11.009Z,59.06
2022-12-27T09:10:39.657Z,58.43
2022-12-27T09:13:07.517Z,58.99
2022-12-27T09:15:35.396Z,59.02
2022-12-27T09:18:03.204Z,58.07
2022-12-27T09:20:31.542Z,59.05
2022-12-27T09:22:59.343Z,57.67
2022-12-27T09:25:27.489Z,57.69
2022-12-27T09:27:55.236Z,56.79
2022-12-27T09:30:22.958Z,54.70
2022-12-27T09:32:50.388Z,55.34
2022-12-27T09:35:17.780Z,55.27
2022-12-27T09:37:45.480Z,55.07
2022-12-27T09:40:16.692Z,52.84
2022-12-27T09:42:59.596Z,51.20
2022-12-27T09:45:46.994Z,51.35
2022-12-27T09:48:31.106Z,53.54
2022-12-27T09:51:14.037Z,51.72
2022-12-27T09:53:46.442Z,50.82
2022-12-27T09:56:21.863Z,50.09
2022-12-27T09:58:50.140Z,48.34
2022-12-27T10:01:32.889Z,49.14
2022-12-27T10:04:01.233Z,47.26
2022-12-27T10:06:31.660Z,48.18
2022-12-27T10:09:43.738Z,48.28
2022-12-27T10:12:14.267Z,48.79
2022-12-27T10:15:20.016Z,49.72
2022-12-27T10:18:06.616Z,49.45
2022-12-27T10:20:58.609Z,50.82
2022-12-27T10:23:29.683Z,49.00
2022-12-27T10:26:03.181Z,49.54
2022-12-27T10:28:43.890Z,48.78
2022-12-27T10:31:15.084Z,50.27
2022-12-27T10:33:44.944Z,50.31
2022-12-27T10:36:21.769Z,52.32
2022-12-27T10:38:49.552Z,50.86
2022-12-27T10:41:32.293Z,52.24
2022-12-27T10:44:00.562Z,51.52
2022-12-27T10:46:33.064Z,52.17
2022-12-27T10:49:20.658Z,52.20
2022-12-27T10:51:51.052Z,53.43
2022-12-27T10:54:31.201Z,52.68
2022-12-27T10:57:18.852Z,52.69
2022-12-27T10:59:46.493Z,53.43
2022-12-27T11:02:19.102Z,51.70
2022-12-27T11:05:00.566Z,50.62
2022-12-27T11:07:33.058Z,49.46
2022-12-27T11:10:16.798Z,50.07
2022-12-27T11:13:06.771Z,49.82
2022-12-27T11:15:36.749Z,50.12
2022-12-27T11:18:11.044Z,50.90
2022-12-27T11:20:43.210Z,52.01
2022-12-27T11:23:14.252Z,52.22
2022-12-27T11:25:55.958Z,52.77
2022-12-27T11:28:40.238Z,51.97
2022-12-27T11:31:11.132Z,53.29
2022-12-27T11:33:48.663Z,54.47
2022-12-27T11:36:26.795Z,54.12
2022-12-27T11:38:54.222Z,54.30
2022-12-27T11:41:31.821Z,53.96
2022-12-27T11:44:08.271Z,53.76
2022-12-27T11:46:59.060Z,51.63
2022-12-27T11:49:34.455Z,49.55
2022-12-27T11:52:35.457Z,48.15
2022-12-27T11:55:02.776Z,49.45
2022-12-27T11:57:49.530Z,47.97
2022-12-27T12:00:19.989Z,48.70
2022-12-27T12:02:57.072Z,47.32
2022-12-27T12:05:55.630Z,48.93
2022-12-27T12:09:02.432Z,49.73
2022-12-27T12:11:55.200Z,48.99
2022-12-27T12:14:38.381Z,47.82
2022-12-27T12:17:46.997Z,47.77
2022-12-27T12:20:50.299Z,46.20
2022-12-27T12:23:50.514Z,46.86
2022-12-27T12:26:20.823Z,46.03
2022-12-27T12:29:19.414Z,47.40
2022-12-27T12:32:11.737Z,45.85
2022-12-27T12:34:57.696Z,47.42
2022-12-27T12:37:52.519Z,47.45
2022-12-27T12:40:38.504Z,47.28
2022-12-27T12:43:13.701Z,48.18
2022-12-27T12:45:41.028Z,50.40
2022-12-27T12:48:20.861Z,49.75
2022-12-27T12:51:25.785Z,47.82
2022-12-27T12:54:17.640Z,47.63
2022-12-27T12:56:48.053Z,48.84
2022-12-27T12:59:46.754Z,46.14
2022-12-27T13:02:48.028Z,45.90
2022-12-27T13:05:24.183Z,46.32
2022-12-27T13:08:28.563Z,46.78
2022-12-27T13:11:14.801Z,45.75
2022-12-27T13:14:01.948Z,46.61
2022-12-27T13:17:02.663Z,45.11
2022-12-27T13:20:00.838Z,46.09
2022-12-27T13:22:47.195Z,46.00
2022-12-27T13:25:17.789Z,46.99
2022-12-27T13:28:00.395Z,46.16
2022-12-27T13:30:45.667Z,46.49
2022-12-27T13:33:45.072Z,46.61
2022-12-27T13:36:24.997Z,45.77
2022-12-27T13:39:30.062Z,46.53
2022-12-27T13:42:25.286Z,47.27
2022-12-27T13:45:08.094Z,48.63
2022-12-27T13:47:54.051Z,47.52
2022-12-27T13:50:24.355Z,47.25
2022-12-27T13:53:04.424Z,47.74
2022-12-27T13:55:55.221Z,47.04
2022-12-27T13:59:00.594Z,44.83
2022-12-27T14:01:28.311Z,45.53
2022-12-27T14:04:14.777Z,43.99
2022-12-27T14:06:44.857Z,44.41
2022-12-27T14:09:24.648Z,44.51
2022-12-27T14:12:35.638Z,43.61
2022-12-27T14:15:06.633Z,42.88
2022-12-27T14:17:52.767Z,43.01
2022-12-27T14:20:27.833Z,42.36
2022-12-27T14:23:04.433Z,46.07
2022-12-27T14:26:02.321Z,44.18
2022-12-27T14:28:48.545Z,46.43
2022-12-27T14:31:28.138Z,44.15
2022-12-27T14:34:25.935Z,47.53
2022-12-27T14:37:11.267Z,43.44
2022-12-27T14:39:41.718Z,44.56
2022-12-27T14:42:24.639Z,44.66
2022-12-27T14:45:20.154Z,40.91
2022-12-27T14:48:06.548Z,39.52
2022-12-27T14:50:48.336Z,41.24
2022-12-27T14:53:48.383Z,40.81
2022-12-27T14:56:27.874Z,41.45
2022-12-27T14:59:10.280Z,43.21
2022-12-27T15:01:56.120Z,44.04
2022-12-27T15:04:50.699Z,41.82
2022-12-27T15:07:50.402Z,44.13
2022-12-27T15:10:33.891Z,41.02
2022-12-27T15:13:20.480Z,39.06
2022-12-27T15:16:15.209Z,40.81
2022-12-27T15:19:08.198Z,41.57
2022-12-27T15:22:02.051Z,40.24
2022-12-27T15:25:06.983Z,40.27
2022-12-27T15:27:43.362Z,37.58
2022-12-27T15:30:21.273Z,39.02
2022-12-27T15:32:57.108Z,36.08
2022-12-27T15:35:40.182Z,38.52
2022-12-27T15:38:14.475Z,41.04
2022-12-27T15:40:54.106Z,45.84
2022-12-27T15:43:52.497Z,41.40
2022-12-27T15:46:23.265Z,45.11
2022-12-27T15:49:13.029Z,38.09
2022-12-27T15:52:01.680Z,38.84
2022-12-27T15:54:48.836Z,39.82
2022-12-27T15:57:47.211Z,37.92
2022-12-27T16:00:15.700Z,40.47
2022-12-27T16:02:49.462Z,40.74
2022-12-27T16:05:19.742Z,39.26
2022-12-27T16:07:49.278Z,38.01
2022-12-27T16:10:36.486Z,37.85
2022-12-27T16:13:13.239Z,40.03
2022-12-27T16:15:44.784Z,42.07
2022-12-27T16:18:21.596Z,45.18
2022-12-27T16:20:57.488Z,49.22
2022-12-27T16:23:27.996Z,49.10
2022-12-27T16:26:07.783Z,53.95
2022-12-27T16:28:37.390Z,55.93
2022-12-27T16:31:11.944Z,57.93
2022-12-27T16:33:41.141Z,56.69
2022-12-27T16:36:35.874Z,57.94
2022-12-27T16:39:28.124Z,49.56
2022-12-27T16:41:58.294Z,50.67
2022-12-27T16:44:30.719Z,50.47
2022-12-27T16:47:23.305Z,49.49
2022-12-27T16:50:17.029Z,42.56
2022-12-27T16:52:53.317Z,46.14
2022-12-27T16:55:45.756Z,46.40
2022-12-27T16:58:33.043Z,49.18
2022-12-27T17:01:22.080Z,44.77
2022-12-27T17:03:49.616Z,41.94
2022-12-27T17:06:34.063Z,40.12
2022-12-27T17:09:10.912Z,42.31
2022-12-27T17:11:43.184Z,42.87
2022-12-27T17:14:26.361Z,40.46
2022-12-27T17:16:57.306Z,40.52
2022-12-27T17:19:33.380Z,39.50
2022-12-27T17:22:03.883Z,39.84
2022-12-27T17:24:31.323Z,42.80
2022-12-27T17:27:10.944Z,43.69
2022-12-27T17:29:38.679Z,46.54
2022-12-27T17:32:08.938Z,47.95
2022-12-27T17:34:41.178Z,48.90
2022-12-27T17:37:28.017Z,52.39
2022-12-27T17:40:05.763Z,53.87
2022-12-27T17:43:05.308Z,53.85
2022-12-27T17:45:35.950Z,54.48
2022-12-27T17:48:34.205Z,56.08
2022-12-27T17:51:06.183Z,55.36
2022-12-27T17:53:52.495Z,53.75
2022-12-27T17:56:40.255Z,48.75
2022-12-27T17:59:10.340Z,49.66
2022-12-27T18:01:47.363Z,46.69
2022-12-27T18:04:18.890Z,48.06
2022-12-27T18:06:46.651Z,49.71
2022-12-27T18:09:31.243Z,52.22
2022-12-27T18:11:59.956Z,55.52
2022-12-27T18:14:30.538Z,56.57
2022-12-27T18:16:58.642Z,57.04
2022-12-27T18:19:31.695Z,59.39
2022-12-27T18:22:02.108Z,60.47
2022-12-27T18:24:32.058Z,60.75
2022-12-27T18:27:02.113Z,60.70
2022-12-27T18:29:30.277Z,61.01
2022-12-27T18:32:04.756Z,61.51
2022-12-27T18:34:34.670Z,59.76
2022-12-27T18:37:07.425Z,56.29
2022-12-27T18:40:00.494Z,54.42
2022-12-27T18:42:41.254Z,48.40
2022-12-27T18:45:19.783Z,46.44
2022-12-27T18:47:53.163Z,46.39
2022-12-27T18:50:24.214Z,46.98
2022-12-27T18:53:04.203Z,47.79
2022-12-27T18:55:32.868Z,53.45
2022-12-27T18:58:20.213Z,55.70
2022-12-27T19:00:55.306Z,55.00
2022-12-27T19:03:26.830Z,56.96
2022-12-27T19:06:01.043Z,57.84
2022-12-27T19:08:37.639Z,55.18
2022-12-27T19:11:06.869Z,51.70
2022-12-27T19:13:48.170Z,50.28
2022-12-27T19:16:22.843Z,45.01
2022-12-27T19:18:54.201Z,40.85
2022-12-27T19:21:36.836Z,45.88
2022-12-27T19:24:24.002Z,45.86
2022-12-27T19:26:52.106Z,46.58
2022-12-27T19:29:23.226Z,50.79
2022-12-27T19:31:56.883Z,49.78
2022-12-27T19:34:26.941Z,48.75
2022-12-27T19:36:55.990Z,46.26
2022-12-27T19:39:26.822Z,45.03
2022-12-27T19:42:00.705Z,48.67
2022-12-27T19:44:32.627Z,45.56
2022-12-27T19:47:00.403Z,39.85
2022-12-27T19:49:44.721Z,38.18
2022-12-27T19:52:19.092Z,40.75
2022-12-27T19:54:47.208Z,39.58
2022-12-27T19:57:15.304Z,39.72
2022-12-27T19:59:43.182Z,45.39
2022-12-27T20:02:18.694Z,45.08
2022-12-27T20:04:47.059Z,43.25
2022-12-27T20:07:20.983Z,39.49
2022-12-27T20:09:49.422Z,36.50
2022-12-27T20:12:18.286Z,47.19
2022-12-27T20:14:47.398Z,49.57
2022-12-27T20:17:17.256Z,51.78
2022-12-27T20:19:45.099Z,53.90
2022-12-27T20:22:13.206Z,52.98
2022-12-27T20:24:41.433Z,48.99
2022-12-27T20:27:09.283Z,48.18
2022-12-27T20:29:37.930Z,49.08
2022-12-27T20:32:06.373Z,54.38
2022-12-27T20:34:34.410Z,57.80
2022-12-27T20:37:02.057Z,55.60
2022-12-27T20:39:29.903Z,53.01
2022-12-27T20:41:57.506Z,49.29
2022-12-27T20:44:25.119Z,44.17
2022-12-27T20:46:53.873Z,43.12
2022-12-27T20:49:21.575Z,44.33
2022-12-27T20:51:49.145Z,46.12
2022-12-27T20:54:17.036Z,45.52
2022-12-27T20:56:44.680Z,55.78
2022-12-27T20:59:12.384Z,63.03
2022-12-27T21:01:40.370Z,63.00
2022-12-27T21:04:09.164Z,60.81
2022-12-27T21:06:36.856Z,55.53
2022-12-27T21:09:05.566Z,51.67
2022-12-27T21:11:33.060Z,49.33
2022-12-27T21:14:02.318Z,45.73
2022-12-27T21:16:32.307Z,46.31
2022-12-27T21:19:03.709Z,45.78
2022-12-27T21:21:33.562Z,49.42
2022-12-27T21:24:01.390Z,55.66
2022-12-27T21:26:31.237Z,59.66
2022-12-27T21:29:00.549Z,60.25
2022-12-27T21:31:29.367Z,58.30
2022-12-27T21:33:58.259Z,61.87
2022-12-27T21:36:27.977Z,58.80
2022-12-27T21:38:55.876Z,55.75
2022-12-27T21:41:26.001Z,52.16
2022-12-27T21:43:54.413Z,56.45
2022-12-27T21:46:27.129Z,55.98
2022-12-27T21:48:59.557Z,58.93
2022-12-27T21:51:27.925Z,57.70
2022-12-27T21:53:56.000Z,55.05
2022-12-27T21:56:23.902Z,57.05
2022-12-27T21:58:51.705Z,56.67
2022-12-27T22:01:24.523Z,56.06
2022-12-27T22:03:53.359Z,55.59
2022-12-27T22:06:26.032Z,56.56
2022-12-27T22:08:56.087Z,52.91
2022-12-27T22:11:24.309Z,48.53
2022-12-27T22:13:51.939Z,57.94
2022-12-27T22:16:22.023Z,59.17
2022-12-27T22:18:49.972Z,60.79
2022-12-27T22:21:20.290Z,59.81
2022-12-27T22:23:50.115Z,56.62
2022-12-27T22:26:21.542Z,49.80
2022-12-27T22:28:49.354Z,55.56
2022-12-27T22:31:22.318Z,58.31
2022-12-27T22:33:50.844Z,61.33
2022-12-27T22:36:21.120Z,60.74
2022-12-27T22:38:50.321Z,59.15
2022-12-27T22:41:21.035Z,57.71
2022-12-27T22:43:53.073Z,58.26
2022-12-27T22:46:21.255Z,62.02
2022-12-27T22:48:50.637Z,64.40
2022-12-27T22:51:22.113Z,66.50
2022-12-27T22:53:50.099Z,64.61
2022-12-27T22:56:19.888Z,67.60
2022-12-27T22:58:47.763Z,66.83
2022-12-27T23:01:30.127Z,68.85
2022-12-27T23:03:59.058Z,68.96
2022-12-27T23:06:28.039Z,67.35
2022-12-27T23:08:55.516Z,67.29
2022-12-27T23:11:28.328Z,67.39
2022-12-27T23:14:01.716Z,67.08
2022-12-27T23:16:36.193Z,67.74
2022-12-27T23:19:04.587Z,67.10
2022-12-27T23:21:32.006Z,68.83
2022-12-27T23:23:59.378Z,70.43
2022-12-27T23:26:27.592Z,69.60
2022-12-27T23:28:55.488Z,69.60
2022-12-27T23:31:23.683Z,67.79
2022-12-27T23:33:51.894Z,65.55
2022-12-27T23:36:19.309Z,65.95
2022-12-27T23:38:47.168Z,65.03
2022-12-27T23:41:17.138Z,64.20
2022-12-27T23:43:54.500Z,65.28
2022-12-27T23:46:24.208Z,65.22
2022-12-27T23:48:52.365Z,68.21
2022-12-27T23:51:20.995Z,69.54
2022-12-27T23:53:48.803Z,67.62
2022-12-27T23:56:18.984Z,63.89
2022-12-27T23:58:47.412Z,67.99
